sensor_id;sensor_type;location;lat;lon;timestamp;P1;durP1;ratioP1;P2;durP2;ratioP2
67749;SDS011;54550;48.838;8.828;2022-08-05T00:01:20;2.20;;;2.00;;
67749;SDS011;54550;48.838;8.828;2022-08-05T00:03:47;3.70;;;1.83;;
67749;SDS011;54550;48.838;8.828;2022-08-05T00:06:13;1.40;;;1.30;;
67749;SDS011;54550;48.838;8.828;2022-08-05T00:08:39;2.47;;;1.83;;
67749;SDS011;54550;48.838;8.828;2022-08-05T00:11:05;1.33;;;1.23;;
67749;SDS011;54550;48.838;8.828;2022-08-05T00:13:33;3.97;;;1.87;;
67749;SDS011;54550;48.838;8.828;2022-08-05T00:16:00;2.30;;;2.10;;
67749;SDS011;54550;48.838;8.828;2022-08-05T00:18:26;1.77;;;1.67;;
67749;SDS011;54550;48.838;8.828;2022-08-05T00:20:51;12.43;;;1.60;;
67749;SDS011;54550;48.838;8.828;2022-08-05T00:23:17;2.63;;;1.70;;
67749;SDS011;54550;48.838;8.828;2022-08-05T00:25:43;7.33;;;2.23;;
67749;SDS011;54550;48.838;8.828;2022-08-05T00:28:09;1.70;;;1.13;;
67749;SDS011;54550;48.838;8.828;2022-08-05T00:30:34;2.80;;;1.30;;
67749;SDS011;54550;48.838;8.828;2022-08-05T00:33:00;1.37;;;1.27;;
67749;SDS011;54550;48.838;8.828;2022-08-05T00:35:26;29.07;;;1.80;;
67749;SDS011;54550;48.838;8.828;2022-08-05T00:37:51;9.83;;;1.87;;
67749;SDS011;54550;48.838;8.828;2022-08-05T00:40:17;11.83;;;1.83;;
67749;SDS011;54550;48.838;8.828;2022-08-05T00:42:43;2.53;;;1.70;;
67749;SDS011;54550;48.838;8.828;2022-08-05T00:45:09;4.23;;;2.00;;
67749;SDS011;54550;48.838;8.828;2022-08-05T00:47:35;6.33;;;2.13;;
67749;SDS011;54550;48.838;8.828;2022-08-05T00:50:01;8.57;;;2.00;;
67749;SDS011;54550;48.838;8.828;2022-08-05T00:52:26;8.00;;;2.17;;
67749;SDS011;54550;48.838;8.828;2022-08-05T00:54:52;3.67;;;1.87;;
67749;SDS011;54550;48.838;8.828;2022-08-05T00:57:18;3.33;;;1.70;;
67749;SDS011;54550;48.838;8.828;2022-08-05T00:59:44;3.60;;;2.50;;
67749;SDS011;54550;48.838;8.828;2022-08-05T01:02:09;10.63;;;2.20;;
67749;SDS011;54550;48.838;8.828;2022-08-05T01:04:35;10.40;;;2.37;;
67749;SDS011;54550;48.838;8.828;2022-08-05T01:07:01;8.63;;;2.37;;
67749;SDS011;54550;48.838;8.828;2022-08-05T01:09:26;2.93;;;1.93;;
67749;SDS011;54550;48.838;8.828;2022-08-05T01:11:52;8.30;;;2.40;;
67749;SDS011;54550;48.838;8.828;2022-08-05T01:14:44;8.30;;;2.67;;
67749;SDS011;54550;48.838;8.828;2022-08-05T01:20:12;8.10;;;2.97;;
67749;SDS011;54550;48.838;8.828;2022-08-05T01:28:59;4.73;;;2.20;;
67749;SDS011;54550;48.838;8.828;2022-08-05T01:31:44;9.53;;;2.60;;
67749;SDS011;54550;48.838;8.828;2022-08-05T01:34:27;7.40;;;2.10;;
67749;SDS011;54550;48.838;8.828;2022-08-05T01:39:48;13.23;;;2.33;;
67749;SDS011;54550;48.838;8.828;2022-08-05T01:42:18;4.23;;;2.60;;
67749;SDS011;54550;48.838;8.828;2022-08-05T01:44:45;3.40;;;2.50;;
67749;SDS011;54550;48.838;8.828;2022-08-05T01:47:16;12.17;;;3.20;;
67749;SDS011;54550;48.838;8.828;2022-08-05T01:49:43;6.07;;;2.33;;
67749;SDS011;54550;48.838;8.828;2022-08-05T01:52:11;6.00;;;2.90;;
67749;SDS011;54550;48.838;8.828;2022-08-05T01:54:44;6.40;;;3.20;;
67749;SDS011;54550;48.838;8.828;2022-08-05T01:57:15;7.37;;;2.60;;
67749;SDS011;54550;48.838;8.828;2022-08-05T01:59:45;6.03;;;1.93;;
67749;SDS011;54550;48.838;8.828;2022-08-05T02:02:12;3.60;;;2.20;;
67749;SDS011;54550;48.838;8.828;2022-08-05T02:04:37;9.20;;;3.53;;
67749;SDS011;54550;48.838;8.828;2022-08-05T02:07:06;6.30;;;2.37;;
67749;SDS011;54550;48.838;8.828;2022-08-05T02:09:32;14.87;;;3.13;;
67749;SDS011;54550;48.838;8.828;2022-08-05T02:12:00;12.70;;;3.03;;
67749;SDS011;54550;48.838;8.828;2022-08-05T02:14:31;12.90;;;2.73;;
67749;SDS011;54550;48.838;8.828;2022-08-05T02:17:03;7.87;;;2.80;;
67749;SDS011;54550;48.838;8.828;2022-08-05T02:19:37;7.50;;;2.83;;
67749;SDS011;54550;48.838;8.828;2022-08-05T02:22:15;19.73;;;2.63;;
67749;SDS011;54550;48.838;8.828;2022-08-05T02:24:45;22.13;;;3.30;;
67749;SDS011;54550;48.838;8.828;2022-08-05T02:27:15;14.77;;;2.57;;
67749;SDS011;54550;48.838;8.828;2022-08-05T02:29:44;9.33;;;3.10;;
67749;SDS011;54550;48.838;8.828;2022-08-05T02:32:12;11.93;;;2.60;;
67749;SDS011;54550;48.838;8.828;2022-08-05T02:34:40;5.50;;;2.60;;
67749;SDS011;54550;48.838;8.828;2022-08-05T02:37:07;12.33;;;2.87;;
67749;SDS011;54550;48.838;8.828;2022-08-05T02:39:35;16.77;;;3.20;;
67749;SDS011;54550;48.838;8.828;2022-08-05T02:42:03;13.20;;;3.37;;
67749;SDS011;54550;48.838;8.828;2022-08-05T02:44:30;11.90;;;2.70;;
67749;SDS011;54550;48.838;8.828;2022-08-05T02:46:58;10.80;;;2.83;;
67749;SDS011;54550;48.838;8.828;2022-08-05T02:49:25;14.03;;;3.53;;
67749;SDS011;54550;48.838;8.828;2022-08-05T02:51:53;8.60;;;2.83;;
67749;SDS011;54550;48.838;8.828;2022-08-05T02:54:20;13.70;;;3.10;;
67749;SDS011;54550;48.838;8.828;2022-08-05T02:56:46;21.53;;;4.10;;
67749;SDS011;54550;48.838;8.828;2022-08-05T02:59:12;9.63;;;3.50;;
67749;SDS011;54550;48.838;8.828;2022-08-05T03:01:41;8.30;;;3.30;;
67749;SDS011;54550;48.838;8.828;2022-08-05T03:04:10;10.07;;;3.70;;
67749;SDS011;54550;48.838;8.828;2022-08-05T03:06:37;12.33;;;3.40;;
67749;SDS011;54550;48.838;8.828;2022-08-05T03:09:04;30.67;;;3.83;;
67749;SDS011;54550;48.838;8.828;2022-08-05T03:11:31;6.77;;;2.93;;
67749;SDS011;54550;48.838;8.828;2022-08-05T03:13:56;11.67;;;2.80;;
67749;SDS011;54550;48.838;8.828;2022-08-05T03:16:23;14.87;;;3.40;;
67749;SDS011;54550;48.838;8.828;2022-08-05T03:18:49;14.80;;;3.70;;
67749;SDS011;54550;48.838;8.828;2022-08-05T03:21:16;7.40;;;3.33;;
67749;SDS011;54550;48.838;8.828;2022-08-05T03:23:42;15.57;;;3.13;;
67749;SDS011;54550;48.838;8.828;2022-08-05T03:26:08;6.33;;;2.93;;
67749;SDS011;54550;48.838;8.828;2022-08-05T03:28:34;18.40;;;3.80;;
67749;SDS011;54550;48.838;8.828;2022-08-05T03:31:01;13.13;;;3.80;;
67749;SDS011;54550;48.838;8.828;2022-08-05T03:33:28;9.90;;;3.07;;
67749;SDS011;54550;48.838;8.828;2022-08-05T03:35:54;10.50;;;3.10;;
67749;SDS011;54550;48.838;8.828;2022-08-05T03:38:22;4.47;;;2.50;;
67749;SDS011;54550;48.838;8.828;2022-08-05T03:40:49;6.07;;;3.43;;
67749;SDS011;54550;48.838;8.828;2022-08-05T03:43:17;11.40;;;3.20;;
67749;SDS011;54550;48.838;8.828;2022-08-05T03:45:43;8.30;;;3.37;;
67749;SDS011;54550;48.838;8.828;2022-08-05T03:48:08;12.03;;;3.37;;
67749;SDS011;54550;48.838;8.828;2022-08-05T03:53:30;7.70;;;3.70;;
67749;SDS011;54550;48.838;8.828;2022-08-05T03:56:02;12.43;;;3.33;;
67749;SDS011;54550;48.838;8.828;2022-08-05T03:58:33;18.83;;;4.13;;
67749;SDS011;54550;48.838;8.828;2022-08-05T04:01:00;3.97;;;3.00;;
67749;SDS011;54550;48.838;8.828;2022-08-05T04:03:30;11.43;;;3.50;;
67749;SDS011;54550;48.838;8.828;2022-08-05T04:06:02;10.43;;;3.67;;
67749;SDS011;54550;48.838;8.828;2022-08-05T04:08:29;10.73;;;3.40;;
67749;SDS011;54550;48.838;8.828;2022-08-05T04:10:56;10.20;;;4.10;;
67749;SDS011;54550;48.838;8.828;2022-08-05T04:13:22;15.57;;;3.87;;
67749;SDS011;54550;48.838;8.828;2022-08-05T04:15:49;13.00;;;3.77;;
67749;SDS011;54550;48.838;8.828;2022-08-05T04:18:15;5.03;;;3.40;;
67749;SDS011;54550;48.838;8.828;2022-08-05T04:20:41;22.40;;;3.60;;
67749;SDS011;54550;48.838;8.828;2022-08-05T04:23:07;6.97;;;3.20;;
67749;SDS011;54550;48.838;8.828;2022-08-05T04:25:34;14.90;;;4.50;;
67749;SDS011;54550;48.838;8.828;2022-08-05T04:27:59;9.23;;;3.07;;
67749;SDS011;54550;48.838;8.828;2022-08-05T04:30:25;23.93;;;4.43;;
67749;SDS011;54550;48.838;8.828;2022-08-05T04:32:51;11.37;;;4.30;;
67749;SDS011;54550;48.838;8.828;2022-08-05T04:35:16;9.90;;;4.00;;
67749;SDS011;54550;48.838;8.828;2022-08-05T04:37:42;22.10;;;3.80;;
67749;SDS011;54550;48.838;8.828;2022-08-05T04:40:07;8.97;;;3.93;;
67749;SDS011;54550;48.838;8.828;2022-08-05T04:42:34;7.53;;;3.20;;
67749;SDS011;54550;48.838;8.828;2022-08-05T04:44:59;10.60;;;3.97;;
67749;SDS011;54550;48.838;8.828;2022-08-05T04:47:26;7.37;;;3.77;;
67749;SDS011;54550;48.838;8.828;2022-08-05T04:49:51;6.40;;;3.57;;
67749;SDS011;54550;48.838;8.828;2022-08-05T04:52:17;15.97;;;4.90;;
67749;SDS011;54550;48.838;8.828;2022-08-05T04:54:42;10.33;;;3.70;;
67749;SDS011;54550;48.838;8.828;2022-08-05T04:57:08;9.17;;;3.37;;
67749;SDS011;54550;48.838;8.828;2022-08-05T04:59:33;11.03;;;3.53;;
67749;SDS011;54550;48.838;8.828;2022-08-05T05:01:59;8.83;;;3.60;;
67749;SDS011;54550;48.838;8.828;2022-08-05T05:04:24;5.70;;;2.57;;
67749;SDS011;54550;48.838;8.828;2022-08-05T05:06:50;15.20;;;3.93;;
67749;SDS011;54550;48.838;8.828;2022-08-05T05:09:15;4.50;;;3.07;;
67749;SDS011;54550;48.838;8.828;2022-08-05T05:11:41;17.13;;;4.50;;
67749;SDS011;54550;48.838;8.828;2022-08-05T05:14:06;12.70;;;4.10;;
67749;SDS011;54550;48.838;8.828;2022-08-05T05:16:32;9.57;;;3.80;;
67749;SDS011;54550;48.838;8.828;2022-08-05T05:18:57;6.20;;;3.57;;
67749;SDS011;54550;48.838;8.828;2022-08-05T05:21:23;8.03;;;4.20;;
67749;SDS011;54550;48.838;8.828;2022-08-05T05:23:49;8.40;;;4.33;;
67749;SDS011;54550;48.838;8.828;2022-08-05T05:26:14;13.37;;;4.73;;
67749;SDS011;54550;48.838;8.828;2022-08-05T05:28:40;8.67;;;4.30;;
67749;SDS011;54550;48.838;8.828;2022-08-05T05:31:06;11.07;;;4.70;;
67749;SDS011;54550;48.838;8.828;2022-08-05T05:33:31;14.70;;;4.00;;
67749;SDS011;54550;48.838;8.828;2022-08-05T05:35:56;15.17;;;4.70;;
67749;SDS011;54550;48.838;8.828;2022-08-05T05:38:22;10.00;;;3.53;;
67749;SDS011;54550;48.838;8.828;2022-08-05T05:40:47;23.37;;;5.67;;
67749;SDS011;54550;48.838;8.828;2022-08-05T05:43:13;14.37;;;4.60;;
67749;SDS011;54550;48.838;8.828;2022-08-05T05:45:38;15.03;;;4.37;;
67749;SDS011;54550;48.838;8.828;2022-08-05T05:48:04;7.60;;;3.43;;
67749;SDS011;54550;48.838;8.828;2022-08-05T05:50:31;13.70;;;4.77;;
67749;SDS011;54550;48.838;8.828;2022-08-05T05:52:57;15.40;;;3.67;;
67749;SDS011;54550;48.838;8.828;2022-08-05T05:55:23;7.93;;;3.23;;
67749;SDS011;54550;48.838;8.828;2022-08-05T05:57:48;9.07;;;3.40;;
67749;SDS011;54550;48.838;8.828;2022-08-05T06:00:15;14.83;;;3.50;;
67749;SDS011;54550;48.838;8.828;2022-08-05T06:02:43;10.03;;;3.30;;
67749;SDS011;54550;48.838;8.828;2022-08-05T06:05:10;9.40;;;3.83;;
67749;SDS011;54550;48.838;8.828;2022-08-05T06:07:37;10.83;;;3.37;;
67749;SDS011;54550;48.838;8.828;2022-08-05T06:10:03;6.57;;;3.00;;
67749;SDS011;54550;48.838;8.828;2022-08-05T06:12:29;10.53;;;2.87;;
67749;SDS011;54550;48.838;8.828;2022-08-05T06:14:55;5.83;;;2.10;;
67749;SDS011;54550;48.838;8.828;2022-08-05T06:17:20;2.63;;;1.90;;
67749;SDS011;54550;48.838;8.828;2022-08-05T06:19:46;8.33;;;2.53;;
67749;SDS011;54550;48.838;8.828;2022-08-05T06:22:12;5.10;;;1.70;;
67749;SDS011;54550;48.838;8.828;2022-08-05T06:24:47;1.80;;;1.67;;
67749;SDS011;54550;48.838;8.828;2022-08-05T06:27:12;6.53;;;2.53;;
67749;SDS011;54550;48.838;8.828;2022-08-05T06:29:38;3.23;;;1.50;;
67749;SDS011;54550;48.838;8.828;2022-08-05T06:32:04;3.33;;;1.80;;
67749;SDS011;54550;48.838;8.828;2022-08-05T06:34:29;6.23;;;2.10;;
67749;SDS011;54550;48.838;8.828;2022-08-05T06:36:55;5.50;;;2.13;;
67749;SDS011;54550;48.838;8.828;2022-08-05T06:39:20;5.73;;;1.70;;
67749;SDS011;54550;48.838;8.828;2022-08-05T06:41:46;2.70;;;2.10;;
67749;SDS011;54550;48.838;8.828;2022-08-05T06:44:13;3.50;;;1.60;;
67749;SDS011;54550;48.838;8.828;2022-08-05T06:46:39;5.20;;;2.03;;
67749;SDS011;54550;48.838;8.828;2022-08-05T06:49:04;3.90;;;1.70;;
67749;SDS011;54550;48.838;8.828;2022-08-05T06:51:30;4.40;;;1.77;;
67749;SDS011;54550;48.838;8.828;2022-08-05T06:53:59;5.20;;;2.07;;
67749;SDS011;54550;48.838;8.828;2022-08-05T06:56:26;4.20;;;1.70;;
67749;SDS011;54550;48.838;8.828;2022-08-05T06:58:52;2.87;;;2.17;;
67749;SDS011;54550;48.838;8.828;2022-08-05T07:01:18;3.83;;;2.27;;
67749;SDS011;54550;48.838;8.828;2022-08-05T07:03:43;8.53;;;1.60;;
67749;SDS011;54550;48.838;8.828;2022-08-05T07:06:09;5.70;;;1.90;;
67749;SDS011;54550;48.838;8.828;2022-08-05T07:08:36;4.10;;;2.00;;
67749;SDS011;54550;48.838;8.828;2022-08-05T07:11:01;3.87;;;1.67;;
67749;SDS011;54550;48.838;8.828;2022-08-05T07:13:28;15.20;;;3.10;;
67749;SDS011;54550;48.838;8.828;2022-08-05T07:16:12;4.40;;;1.70;;
67749;SDS011;54550;48.838;8.828;2022-08-05T07:18:56;4.80;;;1.50;;
67749;SDS011;54550;48.838;8.828;2022-08-05T07:21:22;3.90;;;2.30;;
67749;SDS011;54550;48.838;8.828;2022-08-05T07:23:47;3.80;;;1.63;;
67749;SDS011;54550;48.838;8.828;2022-08-05T07:26:13;2.77;;;1.50;;
67749;SDS011;54550;48.838;8.828;2022-08-05T07:28:38;1.67;;;1.40;;
67749;SDS011;54550;48.838;8.828;2022-08-05T07:31:05;2.60;;;1.70;;
67749;SDS011;54550;48.838;8.828;2022-08-05T07:33:31;3.33;;;1.40;;
67749;SDS011;54550;48.838;8.828;2022-08-05T07:35:57;1.60;;;1.30;;
67749;SDS011;54550;48.838;8.828;2022-08-05T07:38:23;4.17;;;2.00;;
67749;SDS011;54550;48.838;8.828;2022-08-05T07:40:49;3.20;;;1.03;;
67749;SDS011;54550;48.838;8.828;2022-08-05T07:43:15;3.30;;;1.83;;
67749;SDS011;54550;48.838;8.828;2022-08-05T07:45:43;2.40;;;1.70;;
67749;SDS011;54550;48.838;8.828;2022-08-05T07:48:09;4.23;;;1.57;;
67749;SDS011;54550;48.838;8.828;2022-08-05T07:50:35;2.37;;;1.43;;
67749;SDS011;54550;48.838;8.828;2022-08-05T07:53:00;5.30;;;1.90;;
67749;SDS011;54550;48.838;8.828;2022-08-05T07:55:26;3.90;;;1.47;;
67749;SDS011;54550;48.838;8.828;2022-08-05T07:57:52;1.73;;;1.30;;
67749;SDS011;54550;48.838;8.828;2022-08-05T08:00:17;4.43;;;1.73;;
67749;SDS011;54550;48.838;8.828;2022-08-05T08:02:43;2.00;;;1.50;;
67749;SDS011;54550;48.838;8.828;2022-08-05T08:05:09;5.90;;;1.60;;
67749;SDS011;54550;48.838;8.828;2022-08-05T08:07:35;2.17;;;1.40;;
67749;SDS011;54550;48.838;8.828;2022-08-05T08:10:01;2.70;;;1.87;;
67749;SDS011;54550;48.838;8.828;2022-08-05T08:12:27;2.10;;;1.67;;
67749;SDS011;54550;48.838;8.828;2022-08-05T08:14:53;2.67;;;2.00;;
67749;SDS011;54550;48.838;8.828;2022-08-05T08:17:18;3.53;;;1.80;;
67749;SDS011;54550;48.838;8.828;2022-08-05T08:19:44;2.20;;;1.83;;
67749;SDS011;54550;48.838;8.828;2022-08-05T08:22:10;1.63;;;1.53;;
67749;SDS011;54550;48.838;8.828;2022-08-05T08:24:36;1.77;;;1.60;;
67749;SDS011;54550;48.838;8.828;2022-08-05T08:27:02;1.80;;;1.60;;
67749;SDS011;54550;48.838;8.828;2022-08-05T08:29:29;4.73;;;1.70;;
67749;SDS011;54550;48.838;8.828;2022-08-05T08:31:54;15.57;;;1.53;;
67749;SDS011;54550;48.838;8.828;2022-08-05T08:34:21;4.27;;;1.47;;
67749;SDS011;54550;48.838;8.828;2022-08-05T08:36:49;1.97;;;1.50;;
67749;SDS011;54550;48.838;8.828;2022-08-05T08:39:15;3.53;;;1.77;;
67749;SDS011;54550;48.838;8.828;2022-08-05T08:41:42;2.90;;;1.93;;
67749;SDS011;54550;48.838;8.828;2022-08-05T08:44:10;3.93;;;1.57;;
67749;SDS011;54550;48.838;8.828;2022-08-05T08:46:39;10.00;;;1.90;;
67749;SDS011;54550;48.838;8.828;2022-08-05T08:49:05;2.83;;;1.63;;
67749;SDS011;54550;48.838;8.828;2022-08-05T08:51:32;15.10;;;1.83;;
67749;SDS011;54550;48.838;8.828;2022-08-05T08:53:59;2.80;;;1.57;;
67749;SDS011;54550;48.838;8.828;2022-08-05T08:56:25;2.33;;;1.77;;
67749;SDS011;54550;48.838;8.828;2022-08-05T08:58:51;4.37;;;1.87;;
67749;SDS011;54550;48.838;8.828;2022-08-05T09:01:17;2.73;;;1.47;;
67749;SDS011;54550;48.838;8.828;2022-08-05T09:03:47;1.77;;;1.67;;
67749;SDS011;54550;48.838;8.828;2022-08-05T09:06:15;2.80;;;1.70;;
67749;SDS011;54550;48.838;8.828;2022-08-05T09:08:41;4.13;;;1.50;;
67749;SDS011;54550;48.838;8.828;2022-08-05T09:11:07;2.87;;;1.87;;
67749;SDS011;54550;48.838;8.828;2022-08-05T09:13:33;3.43;;;1.93;;
67749;SDS011;54550;48.838;8.828;2022-08-05T09:16:00;4.30;;;1.10;;
67749;SDS011;54550;48.838;8.828;2022-08-05T09:18:26;8.93;;;1.47;;
67749;SDS011;54550;48.838;8.828;2022-08-05T09:20:52;5.70;;;1.30;;
67749;SDS011;54550;48.838;8.828;2022-08-05T09:23:18;1.80;;;1.70;;
67749;SDS011;54550;48.838;8.828;2022-08-05T09:25:50;4.33;;;1.67;;
67749;SDS011;54550;48.838;8.828;2022-08-05T09:28:21;6.03;;;1.50;;
67749;SDS011;54550;48.838;8.828;2022-08-05T09:30:55;4.30;;;1.73;;
67749;SDS011;54550;48.838;8.828;2022-08-05T09:33:24;3.50;;;2.30;;
67749;SDS011;54550;48.838;8.828;2022-08-05T09:38:26;2.37;;;1.63;;
67749;SDS011;54550;48.838;8.828;2022-08-05T09:40:53;1.60;;;1.50;;
67749;SDS011;54550;48.838;8.828;2022-08-05T09:43:27;4.40;;;1.60;;
67749;SDS011;54550;48.838;8.828;2022-08-05T09:45:54;2.17;;;1.20;;
67749;SDS011;54550;48.838;8.828;2022-08-05T09:48:24;1.40;;;1.30;;
67749;SDS011;54550;48.838;8.828;2022-08-05T09:50:58;2.50;;;1.77;;
67749;SDS011;54550;48.838;8.828;2022-08-05T09:53:25;6.30;;;1.70;;
67749;SDS011;54550;48.838;8.828;2022-08-05T09:55:56;2.03;;;1.40;;
67749;SDS011;54550;48.838;8.828;2022-08-05T09:58:23;1.97;;;1.37;;
67749;SDS011;54550;48.838;8.828;2022-08-05T10:03:19;2.67;;;1.67;;
67749;SDS011;54550;48.838;8.828;2022-08-05T10:05:45;2.43;;;1.37;;
67749;SDS011;54550;48.838;8.828;2022-08-05T10:08:10;4.93;;;2.00;;
67749;SDS011;54550;48.838;8.828;2022-08-05T10:10:37;4.07;;;1.60;;
67749;SDS011;54550;48.838;8.828;2022-08-05T10:13:24;3.00;;;1.10;;
67749;SDS011;54550;48.838;8.828;2022-08-05T10:16:04;3.13;;;1.70;;
67749;SDS011;54550;48.838;8.828;2022-08-05T10:18:31;1.90;;;1.30;;
67749;SDS011;54550;48.838;8.828;2022-08-05T10:23:31;3.63;;;1.43;;
67749;SDS011;54550;48.838;8.828;2022-08-05T10:26:05;3.10;;;1.80;;
67749;SDS011;54550;48.838;8.828;2022-08-05T10:28:33;1.67;;;1.47;;
67749;SDS011;54550;48.838;8.828;2022-08-05T10:30:59;1.40;;;1.30;;
67749;SDS011;54550;48.838;8.828;2022-08-05T10:33:27;1.60;;;1.30;;
67749;SDS011;54550;48.838;8.828;2022-08-05T10:35:54;15.10;;;1.50;;
67749;SDS011;54550;48.838;8.828;2022-08-05T10:38:20;5.20;;;1.13;;
67749;SDS011;54550;48.838;8.828;2022-08-05T10:46:05;1.10;;;0.90;;
67749;SDS011;54550;48.838;8.828;2022-08-05T10:48:42;2.30;;;1.53;;
67749;SDS011;54550;48.838;8.828;2022-08-05T10:51:10;7.40;;;1.53;;
67749;SDS011;54550;48.838;8.828;2022-08-05T10:56:06;1.57;;;1.20;;
67749;SDS011;54550;48.838;8.828;2022-08-05T10:58:46;1.77;;;1.23;;
67749;SDS011;54550;48.838;8.828;2022-08-05T11:01:27;1.67;;;1.37;;
67749;SDS011;54550;48.838;8.828;2022-08-05T11:04:09;6.10;;;2.07;;
67749;SDS011;54550;48.838;8.828;2022-08-05T11:09:22;3.37;;;1.40;;
67749;SDS011;54550;48.838;8.828;2022-08-05T11:11:50;3.50;;;1.70;;
67749;SDS011;54550;48.838;8.828;2022-08-05T11:14:23;1.90;;;1.37;;
67749;SDS011;54550;48.838;8.828;2022-08-05T11:19:48;3.53;;;1.60;;
67749;SDS011;54550;48.838;8.828;2022-08-05T11:33:24;1.53;;;1.43;;
67749;SDS011;54550;48.838;8.828;2022-08-05T11:35:51;2.17;;;1.70;;
67749;SDS011;54550;48.838;8.828;2022-08-05T11:38:49;4.33;;;1.40;;
67749;SDS011;54550;48.838;8.828;2022-08-05T11:41:16;3.83;;;1.83;;
67749;SDS011;54550;48.838;8.828;2022-08-05T11:43:54;9.70;;;1.50;;
67749;SDS011;54550;48.838;8.828;2022-08-05T11:46:24;2.97;;;1.70;;
67749;SDS011;54550;48.838;8.828;2022-08-05T11:48:50;3.10;;;1.43;;
67749;SDS011;54550;48.838;8.828;2022-08-05T11:51:16;2.33;;;1.67;;
67749;SDS011;54550;48.838;8.828;2022-08-05T11:53:41;2.17;;;1.40;;
67749;SDS011;54550;48.838;8.828;2022-08-05T11:56:08;3.83;;;1.67;;
67749;SDS011;54550;48.838;8.828;2022-08-05T11:58:34;2.50;;;1.60;;
67749;SDS011;54550;48.838;8.828;2022-08-05T12:06:13;1.77;;;1.23;;
67749;SDS011;54550;48.838;8.828;2022-08-05T12:08:44;2.30;;;1.57;;
67749;SDS011;54550;48.838;8.828;2022-08-05T12:11:13;6.70;;;1.47;;
67749;SDS011;54550;48.838;8.828;2022-08-05T12:16:26;3.53;;;1.50;;
67749;SDS011;54550;48.838;8.828;2022-08-05T12:18:53;1.97;;;1.77;;
67749;SDS011;54550;48.838;8.828;2022-08-05T12:21:29;1.83;;;1.50;;
67749;SDS011;54550;48.838;8.828;2022-08-05T12:24:01;3.30;;;1.27;;
67749;SDS011;54550;48.838;8.828;2022-08-05T12:26:43;4.40;;;1.73;;
67749;SDS011;54550;48.838;8.828;2022-08-05T12:29:12;1.37;;;1.23;;
67749;SDS011;54550;48.838;8.828;2022-08-05T12:31:39;3.27;;;1.70;;
67749;SDS011;54550;48.838;8.828;2022-08-05T12:34:13;19.63;;;1.77;;
67749;SDS011;54550;48.838;8.828;2022-08-05T12:36:41;1.90;;;1.20;;
67749;SDS011;54550;48.838;8.828;2022-08-05T12:39:08;2.40;;;1.20;;
67749;SDS011;54550;48.838;8.828;2022-08-05T12:41:35;4.13;;;1.90;;
67749;SDS011;54550;48.838;8.828;2022-08-05T12:44:05;3.03;;;1.93;;
67749;SDS011;54550;48.838;8.828;2022-08-05T12:46:33;1.83;;;1.53;;
67749;SDS011;54550;48.838;8.828;2022-08-05T12:49:10;2.40;;;1.93;;
67749;SDS011;54550;48.838;8.828;2022-08-05T12:51:48;6.10;;;1.37;;
67749;SDS011;54550;48.838;8.828;2022-08-05T12:54:22;2.30;;;1.70;;
67749;SDS011;54550;48.838;8.828;2022-08-05T12:56:52;2.73;;;1.40;;
67749;SDS011;54550;48.838;8.828;2022-08-05T13:02:10;2.17;;;1.33;;
67749;SDS011;54550;48.838;8.828;2022-08-05T13:04:37;3.40;;;1.80;;
67749;SDS011;54550;48.838;8.828;2022-08-05T13:07:08;2.57;;;1.87;;
67749;SDS011;54550;48.838;8.828;2022-08-05T13:09:37;1.70;;;1.17;;
67749;SDS011;54550;48.838;8.828;2022-08-05T13:17:16;4.23;;;1.47;;
67749;SDS011;54550;48.838;8.828;2022-08-05T13:22:34;2.40;;;1.60;;
67749;SDS011;54550;48.838;8.828;2022-08-05T13:25:07;3.80;;;1.60;;
67749;SDS011;54550;48.838;8.828;2022-08-05T13:27:36;4.70;;;1.93;;
67749;SDS011;54550;48.838;8.828;2022-08-05T13:30:04;3.80;;;1.97;;
67749;SDS011;54550;48.838;8.828;2022-08-05T13:32:32;2.20;;;2.00;;
67749;SDS011;54550;48.838;8.828;2022-08-05T13:34:58;2.37;;;1.70;;
67749;SDS011;54550;48.838;8.828;2022-08-05T13:37:23;3.17;;;1.60;;
67749;SDS011;54550;48.838;8.828;2022-08-05T13:39:49;2.83;;;1.87;;
67749;SDS011;54550;48.838;8.828;2022-08-05T13:42:17;4.10;;;1.60;;
67749;SDS011;54550;48.838;8.828;2022-08-05T13:44:44;2.70;;;1.80;;
67749;SDS011;54550;48.838;8.828;2022-08-05T13:47:10;2.07;;;1.20;;
67749;SDS011;54550;48.838;8.828;2022-08-05T13:49:36;11.97;;;2.10;;
67749;SDS011;54550;48.838;8.828;2022-08-05T13:52:11;4.40;;;1.90;;
67749;SDS011;54550;48.838;8.828;2022-08-05T13:54:42;2.90;;;2.10;;
67749;SDS011;54550;48.838;8.828;2022-08-05T13:57:08;2.73;;;2.10;;
67749;SDS011;54550;48.838;8.828;2022-08-05T13:59:35;9.80;;;1.63;;
67749;SDS011;54550;48.838;8.828;2022-08-05T14:02:03;6.37;;;1.73;;
67749;SDS011;54550;48.838;8.828;2022-08-05T14:04:31;3.80;;;1.77;;
67749;SDS011;54550;48.838;8.828;2022-08-05T14:07:18;1.87;;;1.60;;
67749;SDS011;54550;48.838;8.828;2022-08-05T14:09:45;3.20;;;2.17;;
67749;SDS011;54550;48.838;8.828;2022-08-05T14:12:10;3.43;;;1.73;;
67749;SDS011;54550;48.838;8.828;2022-08-05T14:14:36;4.50;;;2.17;;
67749;SDS011;54550;48.838;8.828;2022-08-05T14:17:01;2.70;;;2.20;;
67749;SDS011;54550;48.838;8.828;2022-08-05T14:19:28;3.53;;;1.93;;
67749;SDS011;54550;48.838;8.828;2022-08-05T14:21:54;2.53;;;1.80;;
67749;SDS011;54550;48.838;8.828;2022-08-05T14:24:19;7.10;;;2.40;;
67749;SDS011;54550;48.838;8.828;2022-08-05T14:26:45;3.73;;;1.93;;
67749;SDS011;54550;48.838;8.828;2022-08-05T14:29:10;5.37;;;1.87;;
67749;SDS011;54550;48.838;8.828;2022-08-05T14:31:36;6.20;;;2.00;;
67749;SDS011;54550;48.838;8.828;2022-08-05T14:34:02;2.30;;;2.07;;
67749;SDS011;54550;48.838;8.828;2022-08-05T14:36:27;5.07;;;2.40;;
67749;SDS011;54550;48.838;8.828;2022-08-05T14:38:53;5.80;;;2.27;;
67749;SDS011;54550;48.838;8.828;2022-08-05T14:41:21;6.07;;;2.37;;
67749;SDS011;54550;48.838;8.828;2022-08-05T14:43:47;4.40;;;2.50;;
67749;SDS011;54550;48.838;8.828;2022-08-05T14:46:14;5.80;;;3.00;;
67749;SDS011;54550;48.838;8.828;2022-08-05T14:48:40;2.93;;;2.57;;
67749;SDS011;54550;48.838;8.828;2022-08-05T14:51:06;6.90;;;3.50;;
67749;SDS011;54550;48.838;8.828;2022-08-05T14:53:32;5.43;;;2.90;;
67749;SDS011;54550;48.838;8.828;2022-08-05T14:55:57;3.73;;;3.00;;
67749;SDS011;54550;48.838;8.828;2022-08-05T14:58:23;2.87;;;2.40;;
67749;SDS011;54550;48.838;8.828;2022-08-05T15:00:48;3.20;;;2.40;;
67749;SDS011;54550;48.838;8.828;2022-08-05T15:03:14;4.83;;;2.73;;
67749;SDS011;54550;48.838;8.828;2022-08-05T15:05:39;4.60;;;2.60;;
67749;SDS011;54550;48.838;8.828;2022-08-05T15:08:05;2.70;;;2.50;;
67749;SDS011;54550;48.838;8.828;2022-08-05T15:10:30;3.00;;;2.70;;
67749;SDS011;54550;48.838;8.828;2022-08-05T15:12:56;4.80;;;2.57;;
67749;SDS011;54550;48.838;8.828;2022-08-05T15:15:23;4.60;;;3.47;;
67749;SDS011;54550;48.838;8.828;2022-08-05T15:17:49;4.63;;;3.40;;
67749;SDS011;54550;48.838;8.828;2022-08-05T15:20:15;11.73;;;3.07;;
67749;SDS011;54550;48.838;8.828;2022-08-05T15:22:40;3.33;;;2.93;;
67749;SDS011;54550;48.838;8.828;2022-08-05T15:25:06;2.97;;;2.53;;
67749;SDS011;54550;48.838;8.828;2022-08-05T15:27:33;2.73;;;2.53;;
67749;SDS011;54550;48.838;8.828;2022-08-05T15:29:58;4.50;;;3.10;;
67749;SDS011;54550;48.838;8.828;2022-08-05T15:32:24;4.97;;;2.63;;
67749;SDS011;54550;48.838;8.828;2022-08-05T15:34:49;5.93;;;2.90;;
67749;SDS011;54550;48.838;8.828;2022-08-05T15:37:15;4.20;;;2.87;;
67749;SDS011;54550;48.838;8.828;2022-08-05T15:39:41;5.93;;;2.33;;
67749;SDS011;54550;48.838;8.828;2022-08-05T15:42:06;9.30;;;3.50;;
67749;SDS011;54550;48.838;8.828;2022-08-05T15:44:35;2.90;;;2.70;;
67749;SDS011;54550;48.838;8.828;2022-08-05T15:47:04;5.93;;;3.23;;
67749;SDS011;54550;48.838;8.828;2022-08-05T15:49:29;6.63;;;3.20;;
67749;SDS011;54550;48.838;8.828;2022-08-05T15:51:55;2.93;;;2.63;;
67749;SDS011;54550;48.838;8.828;2022-08-05T15:54:20;5.40;;;3.20;;